Time;durP1;ratioP1;P1;durP2;ratioP2;P2;SDS_P1;SDS_P2;PMS_P1;PMS_P2;Temp;Humidity;BMP_temperature;BMP_pressure;BME280_temperature;BME280_humidity;BME280_pressure;Samples;Min_cycle;Max_cycle;Signal;HPM_P1;HPM_P2
2021/03/28 00:00:17;;;;;;;13.80;3.63;;;2.30;99.90;;;;;;5082748;28;20107;-63
2021/03/28 00:03:00;;;;;;;11.77;3.72;;;2.30;99.90;;;;;;5078211;28;20032;-63
2021/03/28 00:05:32;;;;;;;12.75;4.15;;;2.40;99.90;;;;;;5090283;28;20031;-63
2021/03/28 00:08:14;;;;;;;15.68;4.35;;;2.30;99.90;;;;;;5078500;28;20032;-63
2021/03/28 00:10:41;;;;;;;11.57;3.63;;;2.30;99.90;;;;;;5069774;28;20038;-62
2021/03/28 00:13:17;;;;;;;11.48;4.35;;;2.30;99.90;;;;;;5078876;28;20354;-63
2021/03/28 00:15:45;;;;;;;13.95;4.65;;;2.40;99.90;;;;;;5088870;28;20024;-63
2021/03/28 00:18:22;;;;;;;12.05;4.32;;;2.30;99.90;;;;;;5087690;28;20028;-63
2021/03/28 00:20:49;;;;;;;19.40;4.22;;;2.30;99.90;;;;;;5089786;28;20362;-64
2021/03/28 00:23:21;;;;;;;13.38;4.50;;;2.40;99.90;;;;;;5064598;28;20028;-64
2021/03/28 00:26:02;;;;;;;13.85;4.82;;;2.30;99.90;;;;;;5076100;28;20020;-63
2021/03/28 00:28:48;;;;;;;11.20;3.97;;;2.40;99.90;;;;;;5082450;28;20032;-63
2021/03/28 00:31:30;;;;;;;13.85;4.15;;;2.30;99.90;;;;;;5073144;28;20044;-64
2021/03/28 00:34:20;;;;;;;18.20;4.65;;;2.40;99.90;;;;;;5074064;28;20424;-62
2021/03/28 00:36:50;;;;;;;15.75;4.35;;;2.30;99.90;;;;;;5075410;28;20019;-64
2021/03/28 00:39:31;;;;;;;11.60;3.80;;;2.30;99.90;;;;;;5079203;28;20027;-62
2021/03/28 00:42:02;;;;;;;17.25;3.75;;;2.30;99.90;;;;;;5079395;28;20025;-63
2021/03/28 00:44:30;;;;;;;9.93;4.18;;;2.30;99.90;;;;;;5072563;28;20028;-62
2021/03/28 00:47:00;;;;;;;13.00;5.03;;;2.30;99.90;;;;;;5073259;28;20039;-62
2021/03/28 00:49:36;;;;;;;11.85;4.35;;;2.30;99.90;;;;;;5079438;28;20390;-63
2021/03/28 00:52:10;;;;;;;17.98;4.57;;;2.30;99.90;;;;;;5085487;28;20028;-62
2021/03/28 00:54:39;;;;;;;12.65;4.15;;;2.30;99.90;;;;;;5085542;28;20016;-63
2021/03/28 00:57:18;;;;;;;19.23;5.32;;;2.30;99.90;;;;;;5087829;28;20481;-62
2021/03/28 01:00:14;;;;;;;10.65;4.15;;;2.30;99.90;;;;;;5087022;28;20012;-63
2021/03/28 01:03:01;;;;;;;11.45;3.97;;;2.30;99.90;;;;;;5079440;28;20572;-63
2021/03/28 01:05:42;;;;;;;8.13;4.07;;;2.30;99.90;;;;;;5085377;28;20023;-64
2021/03/28 01:08:20;;;;;;;13.25;3.83;;;2.30;99.90;;;;;;5079009;28;20056;-64
2021/03/28 01:11:33;;;;;;;13.35;4.60;;;2.20;99.90;;;;;;5084390;28;20020;-64
2021/03/28 01:14:20;;;;;;;12.00;4.13;;;2.30;99.90;;;;;;5076108;28;20047;-63
2021/03/28 01:17:04;;;;;;;15.68;4.55;;;2.20;99.90;;;;;;5078002;28;20032;-63
2021/03/28 01:19:45;;;;;;;15.80;4.68;;;2.20;99.90;;;;;;5084533;28;20020;-63
2021/03/28 01:22:19;;;;;;;11.52;3.90;;;2.30;99.90;;;;;;5087877;28;20030;-63
2021/03/28 01:24:51;;;;;;;15.55;4.70;;;2.20;99.90;;;;;;5088356;28;20106;-63
2021/03/28 01:27:44;;;;;;;10.52;4.07;;;2.20;99.90;;;;;;5076197;28;20078;-62
2021/03/28 01:30:13;;;;;;;11.73;3.97;;;2.20;99.90;;;;;;5087843;28;20358;-64
2021/03/28 01:32:56;;;;;;;11.02;4.05;;;2.20;99.90;;;;;;5087267;28;20020;-64
2021/03/28 01:35:27;;;;;;;8.45;4.05;;;2.20;99.90;;;;;;5082541;28;20086;-63
2021/03/28 01:38:34;;;;;;;12.38;3.95;;;2.20;99.90;;;;;;5086583;28;20028;-63
2021/03/28 01:41:21;;;;;;;12.20;3.83;;;2.10;99.90;;;;;;5087829;28;20122;-62
2021/03/28 01:43:51;;;;;;;13.95;4.10;;;2.10;99.90;;;;;;5077810;28;20263;-63
2021/03/28 01:46:35;;;;;;;11.88;4.25;;;2.10;99.90;;;;;;5073805;28;20056;-63
2021/03/28 01:49:31;;;;;;;16.80;5.15;;;2.10;99.90;;;;;;5078482;28;20070;-63
2021/03/28 01:52:04;;;;;;;10.88;4.72;;;2.10;99.90;;;;;;5087989;28;20027;-63
2021/03/28 01:54:50;;;;;;;11.07;4.25;;;2.10;99.90;;;;;;5087605;28;20594;-63
2021/03/28 01:57:42;;;;;;;12.02;4.78;;;2.10;99.90;;;;;;5086358;28;20023;-62
2021/03/28 02:00:29;;;;;;;15.23;4.75;;;2.10;99.90;;;;;;5055803;28;20032;-62
2021/03/28 02:03:16;;;;;;;17.40;3.83;;;2.10;99.90;;;;;;5055665;28;20024;-63
2021/03/28 02:06:01;;;;;;;15.65;5.22;;;2.10;99.90;;;;;;5055668;28;20033;-63
2021/03/28 02:08:42;;;;;;;15.85;4.18;;;2.20;99.90;;;;;;5062785;28;20093;-63
2021/03/28 02:11:30;;;;;;;15.13;4.65;;;2.10;99.90;;;;;;5061335;28;20078;-63
2021/03/28 02:14:02;;;;;;;8.05;3.53;;;2.10;99.90;;;;;;5051816;28;20021;-64
2021/03/28 02:16:41;;;;;;;13.95;5.25;;;2.10;99.90;;;;;;5055670;28;20028;-62
2021/03/28 02:19:28;;;;;;;10.02;4.05;;;2.10;99.90;;;;;;5058078;28;20024;-63
2021/03/28 02:22:03;;;;;;;12.73;5.13;;;2.10;99.90;;;;;;5054384;28;20491;-64
2021/03/28 02:24:52;;;;;;;9.82;3.72;;;2.10;99.90;;;;;;5053287;28;20428;-62
2021/03/28 02:27:37;;;;;;;13.15;4.38;;;2.00;99.90;;;;;;5053975;28;20027;-64
2021/03/28 02:30:45;;;;;;;15.10;4.07;;;2.00;99.90;;;;;;5054002;28;20017;-64
2021/03/28 02:33:30;;;;;;;9.70;3.53;;;2.00;99.90;;;;;;5056689;28;20037;-63
2021/03/28 02:36:14;;;;;;;12.27;5.00;;;2.00;99.90;;;;;;5064233;28;20100;-63
2021/03/28 02:39:01;;;;;;;10.23;4.22;;;2.00;99.90;;;;;;5057258;28;20045;-62
2021/03/28 02:41:42;;;;;;;14.18;4.00;;;2.10;99.90;;;;;;5053593;28;20100;-64
2021/03/28 02:44:15;;;;;;;20.73;4.95;;;2.10;99.90;;;;;;5058704;28;20060;-62
2021/03/28 02:46:45;;;;;;;12.52;3.75;;;2.10;99.90;;;;;;5058093;28;20390;-64
2021/03/28 02:49:48;;;;;;;10.48;3.95;;;2.20;99.90;;;;;;5061133;28;20157;-62
2021/03/28 02:52:44;;;;;;;10.60;4.72;;;2.10;99.90;;;;;;5059107;28;20040;-63
2021/03/28 02:55:28;;;;;;;11.65;4.05;;;2.10;99.90;;;;;;5058297;28;20028;-63
2021/03/28 02:57:58;;;;;;;10.18;4.65;;;2.10;99.90;;;;;;5060476;28;20028;-63
2021/03/28 03:00:55;;;;;;;14.52;4.80;;;2.10;99.90;;;;;;5056173;28;20017;-64
2021/03/28 03:03:39;;;;;;;15.90;3.38;;;2.10;99.90;;;;;;5060529;28;20040;-63
2021/03/28 03:06:05;;;;;;;15.80;5.25;;;2.10;99.90;;;;;;5056162;28;20041;-63
2021/03/28 03:09:00;;;;;;;11.95;4.85;;;2.10;99.90;;;;;;5064271;28;20024;-64
2021/03/28 03:11:34;;;;;;;10.10;3.90;;;2.10;99.90;;;;;;5062600;28;20060;-63
2021/03/28 03:14:34;;;;;;;5.45;3.40;;;2.10;99.90;;;;;;5060196;28;20663;-62
2021/03/28 03:17:18;;;;;;;7.50;3.35;;;2.00;99.90;;;;;;5064294;28;20063;-63
2021/03/28 03:20:01;;;;;;;13.63;3.53;;;2.00;99.90;;;;;;5060094;28;20079;-64
2021/03/28 03:22:45;;;;;;;10.38;3.90;;;2.00;99.90;;;;;;5062448;28;20086;-63
2021/03/28 03:25:32;;;;;;;9.30;3.88;;;2.10;99.90;;;;;;5055004;28;20048;-63
2021/03/28 03:28:17;;;;;;;14.20;3.75;;;2.10;99.90;;;;;;5053390;28;20036;-63
2021/03/28 03:30:57;;;;;;;8.23;3.67;;;2.10;99.90;;;;;;5054433;28;20032;-62
2021/03/28 03:33:44;;;;;;;10.52;4.50;;;2.10;99.90;;;;;;5054442;28;20096;-63
2021/03/28 03:36:34;;;;;;;12.15;3.85;;;2.10;99.90;;;;;;5058150;28;20024;-62
2021/03/28 03:39:37;;;;;;;13.10;3.97;;;2.10;99.90;;;;;;5055007;28;20501;-63
2021/03/28 03:42:37;;;;;;;9.40;4.43;;;2.10;99.90;;;;;;5053364;28;20056;-63
2021/03/28 03:45:19;;;;;;;8.10;3.42;;;2.10;99.90;;;;;;5059136;28;20489;-63
2021/03/28 03:48:08;;;;;;;10.95;4.35;;;2.20;99.90;;;;;;5049969;28;20339;-62
2021/03/28 03:50:53;;;;;;;14.60;3.50;;;2.20;99.90;;;;;;5056593;28;20474;-63
2021/03/28 03:53:27;;;;;;;10.65;3.83;;;2.30;99.90;;;;;;5056078;28;20047;-63
2021/03/28 03:56:25;;;;;;;12.57;3.85;;;2.40;99.90;;;;;;5056221;28;20084;-63
2021/03/28 03:58:59;;;;;;;10.65;3.65;;;2.50;99.90;;;;;;5052041;28;20017;-63
2021/03/28 04:01:29;;;;;;;12.77;4.40;;;2.50;99.90;;;;;;5051219;28;20016;-62
2021/03/28 04:04:03;;;;;;;15.77;4.47;;;2.50;99.90;;;;;;5075333;23;20435;-57
2021/03/28 04:06:49;;;;;;;13.45;4.55;;;2.50;99.90;;;;;;5052609;28;20027;-58
2021/03/28 04:09:47;;;;;;;13.20;3.63;;;2.60;99.90;;;;;;5053296;28;20021;-57
2021/03/28 04:12:43;;;;;;;15.75;4.53;;;2.60;99.90;;;;;;5053391;28;20227;-57
2021/03/28 04:15:22;;;;;;;14.93;4.55;;;2.60;99.90;;;;;;5049525;28;20100;-57
2021/03/28 04:18:12;;;;;;;10.10;3.80;;;2.50;99.90;;;;;;5050337;28;20421;-56
2021/03/28 04:21:05;;;;;;;10.90;3.67;;;2.60;99.90;;;;;;5055769;28;20031;-55
2021/03/28 04:23:42;;;;;;;13.82;4.50;;;2.60;99.90;;;;;;5050958;28;20032;-58
2021/03/28 04:26:52;;;;;;;13.18;3.67;;;2.70;99.90;;;;;;5051673;28;20025;-57
2021/03/28 04:29:18;;;;;;;8.55;3.10;;;2.70;99.90;;;;;;5054653;28;20070;-58
2021/03/28 04:32:13;;;;;;;12.55;3.42;;;2.70;99.90;;;;;;5069170;28;20720;-58
2021/03/28 04:34:54;;;;;;;14.27;4.07;;;2.80;99.90;;;;;;5066503;28;20442;-58
2021/03/28 04:37:25;;;;;;;11.25;3.65;;;2.80;99.90;;;;;;5067796;28;20031;-58
2021/03/28 04:40:28;;;;;;;8.90;3.83;;;2.80;99.90;;;;;;5066649;28;20081;-55
2021/03/28 04:43:09;;;;;;;11.73;3.45;;;2.80;99.90;;;;;;5068466;28;20029;-57
2021/03/28 04:45:34;;;;;;;11.55;4.15;;;2.80;99.90;;;;;;5065358;28;20029;-55
2021/03/28 04:48:15;;;;;;;8.35;3.17;;;2.80;99.90;;;;;;5067634;28;20397;-57
2021/03/28 04:51:07;;;;;;;7.80;3.58;;;2.80;99.90;;;;;;5065622;28;20025;-57
2021/03/28 04:54:05;;;;;;;9.23;3.47;;;2.80;99.90;;;;;;5064504;28;20040;-57
2021/03/28 04:56:36;;;;;;;11.38;3.72;;;2.80;99.90;;;;;;5067424;28;20083;-59
2021/03/28 04:59:08;;;;;;;7.35;3.00;;;2.80;99.90;;;;;;5067417;28;20036;-59
2021/03/28 05:01:36;;;;;;;9.65;3.85;;;2.90;99.90;;;;;;5066326;28;20028;-58
2021/03/28 05:04:24;;;;;;;9.55;3.83;;;2.80;99.90;;;;;;5067545;28;20029;-57
2021/03/28 05:07:00;;;;;;;7.90;3.72;;;2.80;99.90;;;;;;5067949;28;20071;-58
2021/03/28 05:09:47;;;;;;;7.28;4.00;;;2.90;99.90;;;;;;5067313;28;20038;-58
2021/03/28 05:12:34;;;;;;;13.90;3.70;;;2.90;99.90;;;;;;5066891;28;20020;-57
2021/03/28 05:15:26;;;;;;;;;;;2.90;99.90;;;;;;5067172;28;20032;-59
2021/03/28 05:18:22;;;;;;;8.13;3.30;;;3.00;99.90;;;;;;5037292;28;19908;-58
2021/03/28 05:21:38;;;;;;;10.70;3.70;;;3.00;99.90;;;;;;5066930;28;20111;-59
2021/03/28 05:24:20;;;;;;;11.15;4.63;;;3.00;99.90;;;;;;5041723;28;20368;-57
2021/03/28 05:27:07;;;;;;;11.55;3.67;;;3.00;99.90;;;;;;5068822;28;20032;-57
2021/03/28 05:29:44;;;;;;;16.05;4.72;;;3.00;99.90;;;;;;5054923;28;20016;-59
2021/03/28 05:32:25;;;;;;;16.42;4.22;;;3.10;99.90;;;;;;5067462;28;20020;-58
2021/03/28 05:35:14;;;;;;;8.07;4.55;;;3.10;99.90;;;;;;5066822;28;20046;-57
2021/03/28 05:38:00;;;;;;;9.02;3.55;;;3.10;99.90;;;;;;5067217;28;20086;-57
2021/03/28 05:40:35;;;;;;;9.48;3.35;;;3.20;99.90;;;;;;5065957;28;20085;-57
2021/03/28 05:43:12;;;;;;;9.48;3.88;;;3.20;99.90;;;;;;5061930;28;20020;-58
2021/03/28 05:46:15;;;;;;;8.55;4.13;;;3.20;99.90;;;;;;5066448;28;20012;-58
2021/03/28 05:49:13;;;;;;;10.45;4.07;;;3.20;99.90;;;;;;5058395;28;20031;-57
2021/03/28 05:52:10;;;;;;;12.82;4.35;;;3.20;99.90;;;;;;5054560;28;20028;-59
2021/03/28 05:55:03;;;;;;;8.32;3.47;;;3.30;99.90;;;;;;5067618;28;20036;-58
2021/03/28 05:58:13;;;;;;;15.23;4.22;;;3.30;99.90;;;;;;5068103;28;20096;-57
2021/03/28 06:00:50;;;;;;;9.43;3.30;;;3.30;99.90;;;;;;5050255;28;20040;-58
2021/03/28 06:03:19;;;;;;;9.70;4.38;;;3.30;99.90;;;;;;5065871;28;20440;-56
2021/03/28 06:06:19;;;;;;;12.32;4.45;;;3.40;99.90;;;;;;5067465;28;20036;-57
2021/03/28 06:09:23;;;;;;;9.65;3.20;;;3.40;99.90;;;;;;5055467;28;20035;-59
2021/03/28 06:12:33;;;;;;;10.18;3.35;;;3.40;99.90;;;;;;5066224;28;20448;-58
2021/03/28 06:15:13;;;;;;;5.28;3.05;;;3.50;99.90;;;;;;5068718;28;20028;-57
2021/03/28 06:18:22;;;;;;;7.93;3.63;;;3.50;99.90;;;;;;5071778;28;20062;-58
2021/03/28 06:21:00;;;;;;;14.80;4.20;;;3.60;99.90;;;;;;5069686;28;20650;-57
2021/03/28 06:23:54;;;;;;;9.80;4.22;;;3.70;99.90;;;;;;5071435;28;20121;-59
2021/03/28 06:26:32;;;;;;;8.65;3.63;;;3.90;99.90;;;;;;5059722;28;20053;-59
2021/03/28 06:29:31;;;;;;;9.52;3.92;;;3.90;99.90;;;;;;5071162;28;20382;-57
2021/03/28 06:32:28;;;;;;;12.65;3.58;;;3.90;99.90;;;;;;5071231;28;20111;-59
2021/03/28 06:35:20;;;;;;;7.95;3.35;;;4.00;99.90;;;;;;5061269;28;20081;-56
2021/03/28 06:37:51;;;;;;;9.10;3.63;;;4.10;99.90;;;;;;5070451;28;20039;-59
2021/03/28 06:40:26;;;;;;;11.02;4.28;;;4.10;99.90;;;;;;5071258;28;20482;-56
2021/03/28 06:43:34;;;;;;;8.40;3.28;;;4.20;99.90;;;;;;5069151;28;20052;-57
2021/03/28 06:46:26;;;;;;;13.48;3.92;;;4.20;99.90;;;;;;5008108;28;20026;-57
2021/03/28 06:49:16;;;;;;;6.53;3.58;;;4.30;99.90;;;;;;5005509;28;20396;-59
2021/03/28 06:52:04;;;;;;;12.63;3.97;;;4.30;99.90;;;;;;5066960;28;20436;-58
2021/03/28 06:54:48;;;;;;;8.32;3.60;;;4.40;99.90;;;;;;5070696;28;20149;-58
2021/03/28 06:57:39;;;;;;;13.02;5.15;;;4.40;99.90;;;;;;5069502;28;20036;-54
2021/03/28 07:00:38;;;;;;;5.50;4.18;;;4.50;99.90;;;;;;5064948;28;20116;-58
2021/03/28 07:03:28;;;;;;;13.15;4.50;;;4.50;99.90;;;;;;5065993;28;20039;-58
2021/03/28 07:06:00;;;;;;;13.05;4.90;;;4.60;99.90;;;;;;5059464;28;20036;-57
2021/03/28 07:08:58;;;;;;;12.63;4.82;;;4.70;99.90;;;;;;5060808;28;20024;-56
2021/03/28 07:11:50;;;;;;;7.30;3.55;;;4.70;99.90;;;;;;5066264;28;20028;-55
2021/03/28 07:15:05;;;;;;;13.27;4.75;;;4.80;99.90;;;;;;5067618;28;20103;-57
2021/03/28 07:18:05;;;;;;;7.28;3.72;;;4.90;99.90;;;;;;5068210;28;20020;-58
2021/03/28 07:20:36;;;;;;;8.02;4.32;;;5.00;99.90;;;;;;5069095;28;20028;-53
2021/03/28 07:23:20;;;;;;;9.90;4.13;;;5.00;99.90;;;;;;5069852;28;20593;-58
2021/03/28 07:26:11;;;;;;;9.13;3.92;;;5.10;99.90;;;;;;5069136;28;20043;-56
2021/03/28 07:28:58;;;;;;;13.23;4.45;;;5.20;99.90;;;;;;5062481;28;20538;-57
2021/03/28 07:31:45;;;;;;;11.05;4.35;;;5.30;99.90;;;;;;5060642;28;20012;-58
2021/03/28 07:34:23;;;;;;;11.13;4.53;;;5.40;99.90;;;;;;5068119;28;20181;-56
2021/03/28 07:37:30;;;;;;;13.45;4.35;;;5.40;99.90;;;;;;5069909;28;20027;-57
2021/03/28 07:40:16;;;;;;;12.30;4.35;;;5.50;99.90;;;;;;5067028;28;20084;-56
2021/03/28 07:43:12;;;;;;;9.82;4.65;;;5.50;99.90;;;;;;5069063;28;20502;-58
2021/03/28 07:46:08;;;;;;;10.45;5.07;;;5.60;99.90;;;;;;5069763;28;20029;-58
2021/03/28 07:48:52;;;;;;;10.32;4.38;;;5.60;99.90;;;;;;5059683;28;20063;-56
2021/03/28 07:51:42;;;;;;;8.07;4.07;;;5.70;99.90;;;;;;5068459;28;20450;-57
2021/03/28 07:54:26;;;;;;;9.40;4.15;;;5.80;99.90;;;;;;5069478;28;20046;-57
2021/03/28 07:57:10;;;;;;;12.93;4.85;;;5.90;99.90;;;;;;5057717;28;20029;-57
2021/03/28 07:59:54;;;;;;;11.70;4.00;;;6.00;99.90;;;;;;5057174;28;20028;-55
2021/03/28 08:02:52;;;;;;;8.90;3.85;;;6.10;99.90;;;;;;5069473;28;20552;-57
2021/03/28 08:05:39;;;;;;;9.10;4.18;;;6.20;99.90;;;;;;5056442;28;20031;-58
2021/03/28 08:08:18;;;;;;;;;;;6.40;99.90;;;;;;5068628;28;20047;-58
2021/03/28 08:11:07;;;;;;;12.18;4.72;;;6.50;99.90;;;;;;5069256;28;19920;-58
2021/03/28 08:14:06;;;;;;;7.60;3.50;;;6.50;99.90;;;;;;5069022;28;20017;-58
2021/03/28 08:17:01;;;;;;;10.30;4.10;;;6.70;99.90;;;;;;5069870;28;20537;-57
2021/03/28 08:19:55;;;;;;;12.95;4.55;;;6.90;99.90;;;;;;5057216;28;20025;-53
2021/03/28 08:22:39;;;;;;;11.48;4.10;;;7.00;99.90;;;;;;5069035;28;20031;-57
2021/03/28 08:25:23;;;;;;;13.77;5.00;;;7.10;99.90;;;;;;5067592;28;20082;-57
2021/03/28 08:28:30;;;;;;;14.18;4.07;;;7.10;99.90;;;;;;5050790;28;20026;-57
2021/03/28 08:31:24;;;;;;;14.27;4.53;;;7.20;99.90;;;;;;5056192;28;20021;-57
2021/03/28 08:34:04;;;;;;;9.13;3.97;;;7.30;99.90;;;;;;5052730;28;20177;-58
2021/03/28 08:37:00;;;;;;;10.63;4.38;;;7.50;99.90;;;;;;5052842;28;20489;-58
2021/03/28 08:39:49;;;;;;;11.90;4.68;;;7.70;99.90;;;;;;5061211;28;20025;-57
2021/03/28 08:42:23;;;;;;;10.65;3.95;;;7.80;99.90;;;;;;5050620;28;20429;-59
2021/03/28 08:45:24;;;;;;;7.82;3.65;;;7.90;99.90;;;;;;5052578;28;20101;-57
2021/03/28 08:47:56;;;;;;;9.55;3.75;;;8.00;99.90;;;;;;5053957;28;20021;-58
2021/03/28 08:50:50;;;;;;;14.00;5.63;;;8.10;99.90;;;;;;5053459;28;20475;-57
2021/03/28 08:53:25;;;;;;;9.75;4.15;;;8.20;99.90;;;;;;5049988;28;20021;-57
2021/03/28 08:56:11;;;;;;;8.85;3.78;;;8.40;99.90;;;;;;5050965;28;20017;-59
2021/03/28 08:58:53;;;;;;;8.40;3.72;;;8.70;99.90;;;;;;5049093;28;20722;-58
2021/03/28 09:01:26;;;;;;;13.68;4.20;;;8.90;99.90;;;;;;5049959;28;20112;-57
2021/03/28 09:04:10;;;;;;;10.70;4.20;;;9.00;99.90;;;;;;5052791;28;20029;-58
2021/03/28 09:06:50;;;;;;;8.68;3.88;;;9.10;99.90;;;;;;5066568;28;20767;-58
2021/03/28 09:09:34;;;;;;;10.55;4.07;;;9.10;99.90;;;;;;5061523;28;20047;-55
2021/03/28 09:12:09;;;;;;;8.52;3.25;;;9.00;99.90;;;;;;5063117;28;20095;-58
2021/03/28 09:14:40;;;;;;;8.52;3.95;;;9.00;99.90;;;;;;5068541;28;20016;-58
2021/03/28 09:17:36;;;;;;;8.00;4.15;;;9.00;99.90;;;;;;5067916;28;20413;-59
2021/03/28 09:20:31;;;;;;;10.23;3.97;;;9.20;99.90;;;;;;5068611;28;20108;-56
2021/03/28 09:23:33;;;;;;;8.35;3.85;;;9.30;99.90;;;;;;5040762;28;20505;-59
2021/03/28 09:26:03;;;;;;;10.30;4.13;;;9.40;99.90;;;;;;5068230;28;20749;-59
2021/03/28 09:29:01;;;;;;;6.95;3.03;;;9.50;99.90;;;;;;5068545;28;20073;-57
2021/03/28 09:32:04;;;;;;;11.25;3.85;;;9.60;99.90;;;;;;5068248;28;20445;-58
2021/03/28 09:34:51;;;;;;;7.40;3.10;;;9.80;99.90;;;;;;5067794;28;20035;-59
2021/03/28 09:37:50;;;;;;;7.63;3.58;;;9.90;99.90;;;;;;5051715;28;20108;-58
2021/03/28 09:40:56;;;;;;;11.48;3.00;;;9.90;99.90;;;;;;5053293;28;20090;-60
2021/03/28 09:43:31;;;;;;;10.77;3.00;;;10.00;99.90;;;;;;5065492;28;20032;-58
2021/03/28 09:46:05;;;;;;;10.35;3.78;;;10.30;99.90;;;;;;5067568;28;20036;-58
2021/03/28 09:48:38;;;;;;;9.40;3.45;;;10.60;99.90;;;;;;5067156;28;20416;-59
2021/03/28 09:51:39;;;;;;;10.27;3.70;;;10.90;99.90;;;;;;5067700;28;20031;-60
2021/03/28 09:54:40;;;;;;;4.82;3.22;;;11.10;99.90;;;;;;5060582;28;20486;-59
2021/03/28 09:57:33;;;;;;;11.75;3.90;;;11.30;99.90;;;;;;5058033;28;20632;-57
2021/03/28 10:00:17;;;;;;;6.65;3.30;;;11.30;99.90;;;;;;5068086;28;20017;-60
2021/03/28 10:03:01;;;;;;;9.88;3.30;;;11.30;99.90;;;;;;5066974;28;20029;-59
2021/03/28 10:05:35;;;;;;;4.80;2.55;;;11.40;99.90;;;;;;5079945;23;20049;-63
2021/03/28 10:08:09;;;;;;;10.82;3.55;;;11.60;99.90;;;;;;5074370;28;20041;-64
2021/03/28 10:11:00;;;;;;;7.25;3.15;;;11.60;99.90;;;;;;5067957;28;20074;-64
2021/03/28 10:13:45;;;;;;;12.52;3.45;;;11.40;99.90;;;;;;5067797;28;20120;-64
2021/03/28 10:16:36;;;;;;;8.15;3.55;;;11.40;99.90;;;;;;5071515;28;20027;-63
2021/03/28 10:19:32;;;;;;;9.95;2.75;;;11.30;99.90;;;;;;5070474;28;20035;-63
2021/03/28 10:22:04;;;;;;;7.50;3.22;;;11.20;99.90;;;;;;5071757;28;20023;-64
2021/03/28 10:25:11;;;;;;;5.45;2.47;;;11.10;99.90;;;;;;5071321;28;20073;-61
2021/03/28 10:28:11;;;;;;;10.07;3.35;;;11.10;99.90;;;;;;5056365;28;20126;-62
2021/03/28 10:30:53;;;;;;;5.20;2.55;;;11.00;99.90;;;;;;5056516;28;20017;-64
2021/03/28 10:33:38;;;;;;;6.10;2.28;;;11.00;99.90;;;;;;5059289;28;20023;-63
2021/03/28 10:37:01;;;;;;;4.82;2.65;;;11.00;99.90;;;;;;5054538;28;20386;-63
2021/03/28 10:39:54;;;;;;;7.22;2.67;;;11.00;99.90;;;;;;5000618;28;20148;-63
2021/03/28 10:42:45;;;;;;;6.30;3.08;;;11.10;99.90;;;;;;4998315;28;20032;-64
2021/03/28 10:45:50;;;;;;;9.15;2.97;;;11.10;99.90;;;;;;5059100;28;20051;-62
2021/03/28 10:48:50;;;;;;;4.50;2.63;;;11.10;99.90;;;;;;5054709;28;20056;-64
2021/03/28 10:51:35;;;;;;;6.25;2.33;;;10.90;99.90;;;;;;5065806;28;20020;-63
2021/03/28 10:54:29;;;;;;;8.43;2.92;;;10.90;99.90;;;;;;5056187;28;20021;-63
2021/03/28 10:57:32;;;;;;;5.60;3.13;;;10.90;99.90;;;;;;5076933;28;20031;-61
2021/03/28 11:00:03;;;;;;;6.50;2.45;;;11.00;99.90;;;;;;5059081;28;20029;-62
2021/03/28 11:03:11;;;;;;;7.60;2.25;;;11.20;99.90;;;;;;5058497;28;20021;-61
2021/03/28 11:05:46;;;;;;;7.40;2.67;;;11.30;99.90;;;;;;5060782;28;20124;-61
2021/03/28 11:08:23;;;;;;;4.90;2.80;;;11.30;99.90;;;;;;5060762;28;20116;-64
2021/03/28 11:11:14;;;;;;;6.60;2.60;;;11.40;99.90;;;;;;5058555;28;20020;-63
2021/03/28 11:14:23;;;;;;;9.60;2.95;;;11.40;99.90;;;;;;5062051;28;20021;-63
2021/03/28 11:17:06;;;;;;;5.45;2.75;;;11.50;99.90;;;;;;5028146;28;20033;-62
2021/03/28 11:19:56;;;;;;;9.23;3.33;;;11.40;99.90;;;;;;5059017;28;20024;-65
2021/03/28 11:22:40;;;;;;;6.95;2.90;;;11.50;99.90;;;;;;5056548;28;20534;-64
2021/03/28 11:25:23;;;;;;;5.95;2.65;;;11.60;99.90;;;;;;5059296;28;20025;-61
2021/03/28 11:28:07;;;;;;;5.97;2.28;;;11.70;99.90;;;;;;5056203;28;20048;-61
2021/03/28 11:30:48;;;;;;;9.38;2.63;;;11.70;99.90;;;;;;5057767;28;20593;-63
2021/03/28 11:33:14;;;;;;;6.47;2.33;;;11.70;99.90;;;;;;5057021;28;20020;-61
2021/03/28 11:36:02;;;;;;;8.82;2.88;;;11.80;99.90;;;;;;5055903;28;20017;-62
2021/03/28 11:38:36;;;;;;;7.05;3.15;;;11.80;99.90;;;;;;5066249;28;20021;-64
2021/03/28 11:41:11;;;;;;;7.40;2.70;;;11.60;99.90;;;;;;5059979;28;20390;-63
2021/03/28 11:43:48;;;;;;;5.80;2.13;;;11.50;99.90;;;;;;5055512;28;20426;-61
2021/03/28 11:46:27;;;;;;;8.98;2.40;;;11.50;99.90;;;;;;5060109;28;20027;-62
2021/03/28 11:48:53;;;;;;;4.85;2.05;;;11.50;99.90;;;;;;5057708;28;20660;-64
2021/03/28 11:51:18;;;;;;;3.72;2.05;;;11.50;99.90;;;;;;5060414;28;20020;-65
2021/03/28 11:53:47;;;;;;;4.95;2.30;;;11.50;99.90;;;;;;5055676;28;20078;-61
2021/03/28 11:56:38;;;;;;;7.07;2.33;;;11.60;99.90;;;;;;5058916;28;20021;-63
2021/03/28 11:59:10;;;;;;;9.10;2.35;;;11.70;99.90;;;;;;5056647;28;20036;-60
2021/03/28 12:01:55;;;;;;;6.30;2.20;;;11.70;99.90;;;;;;5051579;28;20433;-61
2021/03/28 12:04:34;;;;;;;3.47;2.45;;;11.80;99.90;;;;;;5054749;28;20021;-62
2021/03/28 12:07:26;;;;;;;6.40;2.28;;;11.70;99.90;;;;;;5058073;28;20433;-62
2021/03/28 12:10:00;;;;;;;7.00;2.50;;;11.80;99.90;;;;;;5060789;28;20016;-63
2021/03/28 12:12:48;;;;;;;6.47;2.63;;;11.70;99.90;;;;;;5059244;28;20016;-64
2021/03/28 12:15:44;;;;;;;8.98;3.15;;;11.70;99.90;;;;;;5059135;28;20492;-61
2021/03/28 12:18:31;;;;;;;7.30;1.98;;;11.60;99.90;;;;;;5053629;28;20021;-63
2021/03/28 12:20:59;;;;;;;6.53;3.05;;;11.60;99.90;;;;;;5054408;28;20032;-64
2021/03/28 12:23:48;;;;;;;5.25;2.30;;;11.60;99.90;;;;;;5056749;28;20025;-63
2021/03/28 12:26:27;;;;;;;6.38;2.53;;;11.60;99.90;;;;;;5049076;28;20068;-62
2021/03/28 12:29:03;;;;;;;6.90;2.50;;;11.50;99.90;;;;;;5059212;28;20024;-62
2021/03/28 12:31:39;;;;;;;;;;;11.50;99.90;;;;;;5067354;28;20024;-63
2021/03/28 12:34:08;;;;;;;10.30;2.90;;;11.50;99.90;;;;;;5068121;28;19904;-65
2021/03/28 12:36:48;;;;;;;7.18;2.55;;;11.40;99.90;;;;;;5069227;28;20058;-63
2021/03/28 12:39:18;;;;;;;6.10;2.65;;;11.20;99.90;;;;;;5071238;28;20020;-64
2021/03/28 12:42:02;;;;;;;5.90;2.38;;;11.20;99.90;;;;;;5061677;28;20020;-64
2021/03/28 12:44:39;;;;;;;6.78;2.75;;;11.10;99.90;;;;;;5072168;28;20059;-63
2021/03/28 12:47:24;;;;;;;6.38;2.72;;;11.00;99.90;;;;;;5079556;28;20063;-63
2021/03/28 12:49:56;;;;;;;4.35;2.55;;;11.00;99.90;;;;;;5077053;28;20132;-64
2021/03/28 12:52:42;;;;;;;4.82;2.60;;;10.90;99.90;;;;;;5078143;28;20106;-63
2021/03/28 12:55:13;;;;;;;8.50;2.47;;;10.80;99.90;;;;;;5084817;28;20031;-64
2021/03/28 12:57:46;;;;;;;8.95;2.63;;;10.80;99.90;;;;;;5081823;28;20033;-61
2021/03/28 13:00:45;;;;;;;7.82;4.00;;;10.70;99.90;;;;;;5079518;28;20437;-65
2021/03/28 13:03:22;;;;;;;7.25;3.97;;;10.60;99.90;;;;;;5072150;28;20064;-64
2021/03/28 13:06:03;;;;;;;9.60;4.65;;;10.50;99.90;;;;;;5058150;28;20140;-61
2021/03/28 13:08:58;;;;;;;7.43;3.03;;;10.40;99.90;;;;;;5084899;28;20095;-63
2021/03/28 13:11:49;;;;;;;11.10;5.13;;;10.40;99.90;;;;;;5084849;28;20017;-63
2021/03/28 13:14:40;;;;;;;6.88;3.20;;;10.40;99.90;;;;;;5066340;28;20097;-62
2021/03/28 13:17:15;;;;;;;8.50;4.22;;;10.30;99.90;;;;;;5059531;28;20036;-64
2021/03/28 13:19:43;;;;;;;8.93;3.28;;;10.30;99.90;;;;;;5068788;28;20525;-63
2021/03/28 13:22:33;;;;;;;10.18;4.00;;;10.20;99.90;;;;;;5066316;28;20024;-60
2021/03/28 13:25:21;;;;;;;6.28;3.13;;;10.20;99.90;;;;;;5061998;28;20180;-61
2021/03/28 13:28:08;;;;;;;8.10;3.72;;;10.20;99.90;;;;;;5068684;28;20032;-61
2021/03/28 13:30:37;;;;;;;8.50;3.60;;;10.20;99.90;;;;;;5066801;28;20033;-61
2021/03/28 13:33:21;;;;;;;9.27;4.40;;;10.20;99.90;;;;;;5072031;28;20051;-62
2021/03/28 13:35:49;;;;;;;8.75;3.80;;;10.20;99.90;;;;;;5077544;28;20114;-61
2021/03/28 13:38:24;;;;;;;6.22;3.50;;;10.20;99.90;;;;;;5084267;28;20016;-62
2021/03/28 13:40:53;;;;;;;8.00;3.38;;;10.20;99.90;;;;;;5060194;28;20075;-62
2021/03/28 13:43:22;;;;;;;6.63;3.13;;;10.10;99.90;;;;;;5052017;28;20047;-61
2021/03/28 13:45:52;;;;;;;7.47;3.35;;;10.10;99.90;;;;;;5059545;28;20021;-63
2021/03/28 13:48:18;;;;;;;9.45;3.88;;;10.10;99.90;;;;;;5053559;28;20672;-63
2021/03/28 13:51:14;;;;;;;14.25;4.18;;;10.00;99.90;;;;;;5052958;28;20104;-62
2021/03/28 13:54:11;;;;;;;5.50;3.03;;;10.00;99.90;;;;;;5053073;28;20529;-62
2021/03/28 13:56:51;;;;;;;5.43;3.05;;;9.90;99.90;;;;;;5049319;28;20032;-63
2021/03/28 13:59:22;;;;;;;10.15;4.13;;;9.90;99.90;;;;;;5061203;28;20036;-62
2021/03/28 14:02:20;;;;;;;9.05;3.40;;;9.90;99.90;;;;;;5051789;28;20028;-63
2021/03/28 14:05:06;;;;;;;9.07;4.15;;;9.90;99.90;;;;;;5056840;28;20055;-63
2021/03/28 14:07:48;;;;;;;6.53;3.58;;;10.00;99.90;;;;;;5049366;28;20116;-65
2021/03/28 14:10:35;;;;;;;6.85;3.53;;;10.00;99.90;;;;;;5055115;28;20635;-63
2021/03/28 14:13:34;;;;;;;6.78;3.83;;;10.00;99.90;;;;;;5050369;28;20066;-62
2021/03/28 14:16:00;;;;;;;5.88;3.72;;;10.00;99.90;;;;;;5049966;28;20013;-62
2021/03/28 14:18:39;;;;;;;8.60;4.07;;;10.00;99.90;;;;;;5050116;28;20624;-62
2021/03/28 14:21:09;;;;;;;8.18;3.60;;;10.00;99.90;;;;;;5062372;28;20493;-62